Time;durP1;ratioP1;P1;durP2;ratioP2;P2;SDS_P1;SDS_P2;PMS_P1;PMS_P2;Temp;Humidity;BMP_temperature;BMP_pressure;BME280_temperature;BME280_humidity;BME280_pressure;Samples;Min_cycle;Max_cycle;Signal;HPM_P1;HPM_P2
2022/01/14 00:01:16;;;;;;;16.80;16.00;;;3.80;77.80;;;;;;5032175;28;20030;-80
2022/01/14 00:03:43;;;;;;;16.47;15.67;;;3.80;77.80;;;;;;5033401;28;20041;-80
2022/01/14 00:06:09;;;;;;;17.93;16.73;;;3.80;77.80;;;;;;5032056;28;20044;-80
2022/01/14 00:08:35;;;;;;;15.87;15.17;;;3.80;77.80;;;;;;5032891;28;20049;-80
2022/01/14 00:11:03;;;;;;;18.00;16.90;;;3.80;77.90;;;;;;5032154;28;20397;-80
2022/01/14 00:16:05;;;;;;;18.47;17.37;;;3.70;77.90;;;;;;5033285;28;20064;-80
2022/01/14 00:18:31;;;;;;;16.50;15.73;;;3.70;77.90;;;;;;5033526;28;20509;-80
2022/01/14 00:20:59;;;;;;;17.77;16.97;;;3.70;78.00;;;;;;5033279;28;20133;-80
2022/01/14 00:23:30;;;;;;;16.90;16.10;;;3.70;77.90;;;;;;5031619;28;20041;-80
2022/01/14 00:31:54;;;;;;;17.03;16.23;;;3.60;78.00;;;;;;4957429;28;20436;-80
2022/01/14 00:34:21;;;;;;;17.67;16.67;;;3.60;78.00;;;;;;4956786;28;20054;-80
2022/01/14 00:36:47;;;;;;;17.47;16.47;;;3.60;78.00;;;;;;4956875;28;20058;-80
2022/01/14 00:39:13;;;;;;;17.70;16.80;;;3.60;78.00;;;;;;4956407;28;20038;-80
2022/01/14 00:41:39;;;;;;;17.33;16.43;;;3.60;78.00;;;;;;4937107;28;20140;-80
2022/01/14 00:44:10;;;;;;;17.37;16.50;;;3.70;78.00;;;;;;4956509;28;20044;-80
2022/01/14 00:46:38;;;;;;;16.65;15.85;;;3.70;77.90;;;;;;4954582;28;20059;-80
2022/01/14 00:49:04;;;;;;;16.57;15.77;;;3.70;77.90;;;;;;4956566;28;20023;-80
2022/01/14 00:51:30;;;;;;;17.77;16.93;;;3.70;77.90;;;;;;4956763;28;20031;-80
2022/01/14 00:53:56;;;;;;;17.43;16.43;;;3.70;77.90;;;;;;4955633;28;20041;-80
2022/01/14 01:01:39;;;;;;;16.33;15.53;;;3.70;78.00;;;;;;4945164;28;20551;-80
2022/01/14 01:04:05;;;;;;;17.83;16.93;;;3.70;78.00;;;;;;5027226;28;20041;-80
2022/01/14 01:06:31;;;;;;;16.90;15.93;;;3.70;78.70;;;;;;5030425;28;20053;-80
2022/01/14 01:08:57;;;;;;;16.87;16.07;;;3.70;78.00;;;;;;5030584;28;20493;-80
2022/01/14 01:11:27;;;;;;;16.27;15.47;;;3.70;77.90;;;;;;5015336;28;20037;-80
2022/01/14 01:14:04;;;;;;;17.27;16.48;;;3.70;77.90;;;;;;5028880;28;20485;-80
2022/01/14 01:16:30;;;;;;;16.90;16.10;;;3.80;78.00;;;;;;5031285;28;20105;-80
2022/01/14 01:18:56;;;;;;;17.83;16.93;;;3.80;78.00;;;;;;5032001;28;20532;-80
2022/01/14 01:21:41;;;;;;;16.57;15.77;;;3.80;77.80;;;;;;5342769;22;22025;-79
2022/01/14 01:24:12;;;;;;;16.97;16.13;;;3.80;77.80;;;;;;4974026;28;20035;-85
2022/01/14 01:26:39;;;;;;;16.10;15.38;;;3.90;77.80;;;;;;4990415;28;20037;-85
2022/01/14 01:31:42;;;;;;;18.00;17.10;;;3.80;77.60;;;;;;4991199;28;20506;-84
2022/01/14 01:34:19;;;;;;;18.42;16.67;;;3.80;77.70;;;;;;4986069;28;20046;-85
2022/01/14 01:36:47;;;;;;;16.30;15.50;;;3.80;77.80;;;;;;4987705;28;20049;-85
2022/01/14 01:39:14;;;;;;;15.83;15.03;;;3.70;77.90;;;;;;4988403;28;20026;-85
2022/01/14 01:41:42;;;;;;;17.20;16.40;;;3.80;77.90;;;;;;4987362;28;20034;-85
2022/01/14 01:44:09;;;;;;;17.00;16.20;;;3.80;78.00;;;;;;4990071;28;20031;-85
2022/01/14 01:46:38;;;;;;;17.57;16.57;;;3.80;77.90;;;;;;4985284;28;20046;-84
2022/01/14 01:49:05;;;;;;;16.70;15.90;;;3.70;77.90;;;;;;4988093;28;20645;-85
2022/01/14 01:51:31;;;;;;;17.40;16.50;;;3.70;77.90;;;;;;4987618;28;20050;-85
2022/01/14 01:53:57;;;;;;;16.87;16.07;;;3.80;77.90;;;;;;4991202;28;20435;-85
2022/01/14 01:56:23;;;;;;;18.20;17.30;;;3.70;77.90;;;;;;4976358;28;20038;-85
2022/01/14 01:58:49;;;;;;;17.73;16.83;;;3.70;77.90;;;;;;4986044;28;20026;-85
2022/01/14 02:01:15;;;;;;;17.10;16.30;;;3.70;77.90;;;;;;4978264;28;20050;-85
2022/01/14 02:03:41;;;;;;;17.40;16.50;;;3.70;77.90;;;;;;4980980;28;20036;-85
2022/01/14 02:06:07;;;;;;;17.53;16.60;;;3.70;77.90;;;;;;4988330;28;20046;-85
2022/01/14 02:08:34;;;;;;;17.57;16.67;;;3.70;77.90;;;;;;4978282;28;20526;-85
2022/01/14 02:11:00;;;;;;;17.43;16.43;;;3.70;77.90;;;;;;4993030;28;20030;-85
2022/01/14 02:13:26;;;;;;;17.50;16.60;;;3.60;77.80;;;;;;4978875;28;20049;-85
2022/01/14 02:23:41;;;;;;;15.97;15.27;;;3.40;78.00;;;;;;4975731;28;20046;-85
2022/01/14 02:26:07;;;;;;;17.80;16.70;;;3.40;78.10;;;;;;4976338;28;20043;-85
2022/01/14 02:28:33;;;;;;;16.80;15.90;;;3.30;78.00;;;;;;4976851;28;20039;-85
2022/01/14 02:30:59;;;;;;;16.80;16.00;;;3.30;78.20;;;;;;4975777;28;20030;-85
2022/01/14 02:33:25;;;;;;;17.30;16.50;;;3.30;78.20;;;;;;4984719;28;20027;-85
2022/01/14 02:35:53;;;;;;;16.70;15.90;;;3.30;78.30;;;;;;4979674;28;20404;-85
2022/01/14 02:38:19;;;;;;;17.47;16.47;;;3.30;78.30;;;;;;4994555;28;20050;-85
2022/01/14 02:40:46;;;;;;;16.30;15.57;;;3.30;78.30;;;;;;4989041;28;20026;-85
2022/01/14 02:43:14;;;;;;;17.77;16.87;;;3.30;78.20;;;;;;4994676;28;20030;-85
2022/01/14 02:45:41;;;;;;;18.73;17.73;;;3.30;78.30;;;;;;4990509;28;20391;-85
2022/01/14 02:48:07;;;;;;;17.73;16.57;;;3.30;78.20;;;;;;4970469;28;20054;-85
2022/01/14 02:50:54;;;;;;;17.57;16.77;;;3.40;78.30;;;;;;4961210;28;20042;-84
2022/01/14 02:55:56;;;;;;;17.03;16.13;;;3.40;78.00;;;;;;4966629;28;20069;-85
2022/01/14 02:58:23;;;;;;;16.53;15.60;;;3.30;78.00;;;;;;4964959;28;20042;-84
2022/01/14 03:00:49;;;;;;;16.80;16.00;;;3.30;78.10;;;;;;4968399;28;20038;-85
2022/01/14 03:03:15;;;;;;;15.27;14.57;;;3.20;78.90;;;;;;4981144;28;20042;-85
2022/01/14 03:05:41;;;;;;;17.33;16.13;;;3.20;78.30;;;;;;4981022;28;20394;-85
2022/01/14 03:08:07;;;;;;;19.07;17.67;;;3.10;78.30;;;;;;4964845;28;20043;-85
2022/01/14 03:10:33;;;;;;;18.47;17.43;;;3.10;78.40;;;;;;4993414;28;20034;-85
2022/01/14 03:12:59;;;;;;;16.27;15.47;;;3.10;78.50;;;;;;4992146;28;20046;-85
2022/01/14 03:15:25;;;;;;;17.00;16.20;;;3.10;78.60;;;;;;4988091;28;20394;-85
2022/01/14 03:17:52;;;;;;;17.20;16.30;;;3.10;78.70;;;;;;4990145;28;20023;-85
2022/01/14 03:21:27;;;;;;;16.67;15.87;;;3.10;78.70;;;;;;4990884;28;20047;-84
2022/01/14 03:23:14;;;;;;;18.17;17.20;;;3.00;78.80;;;;;;4975359;28;20039;-85
2022/01/14 03:25:49;;;;;;;17.30;16.50;;;3.00;78.80;;;;;;5007319;28;20039;-84
2022/01/14 03:28:22;;;;;;;17.87;16.97;;;3.00;78.80;;;;;;4985266;28;20055;-84
2022/01/14 03:30:49;;;;;;;16.17;15.47;;;3.00;78.90;;;;;;4951290;28;20042;-84
2022/01/14 03:33:15;;;;;;;16.80;16.00;;;2.90;78.90;;;;;;4980541;28;20026;-85
2022/01/14 03:35:41;;;;;;;16.53;15.73;;;3.00;79.00;;;;;;4989322;28;20022;-84
2022/01/14 03:38:07;;;;;;;16.13;15.43;;;2.90;79.00;;;;;;4994685;28;20497;-84
2022/01/14 03:40:33;;;;;;;16.77;15.97;;;2.90;79.00;;;;;;4982951;28;20038;-85
2022/01/14 03:42:59;;;;;;;16.37;15.37;;;2.90;79.20;;;;;;4983427;28;20042;-85
2022/01/14 03:45:25;;;;;;;16.80;16.00;;;2.90;79.20;;;;;;4986210;28;20034;-85
2022/01/14 03:47:51;;;;;;;16.90;16.10;;;2.90;79.30;;;;;;4992396;28;20409;-84
2022/01/14 03:50:17;;;;;;;15.70;15.00;;;2.90;79.40;;;;;;4976765;28;20026;-84
2022/01/14 03:52:44;;;;;;;17.70;16.47;;;2.80;79.50;;;;;;4981433;28;20035;-85
2022/01/14 03:55:10;;;;;;;17.13;16.33;;;2.80;79.50;;;;;;4986730;28;20478;-84
2022/01/14 03:57:36;;;;;;;16.37;15.37;;;2.80;79.60;;;;;;4990256;28;20405;-84
2022/01/14 04:00:03;;;;;;;18.13;17.13;;;2.80;79.70;;;;;;4989676;28;20035;-84
2022/01/14 04:02:29;;;;;;;15.77;15.07;;;2.80;79.70;;;;;;4990920;28;20034;-84
2022/01/14 04:04:55;;;;;;;16.80;16.00;;;2.80;79.60;;;;;;4990445;28;20034;-84
2022/01/14 04:07:21;;;;;;;16.20;15.40;;;2.80;79.50;;;;;;4989853;28;20050;-84
2022/01/14 04:09:47;;;;;;;16.97;16.00;;;2.80;79.50;;;;;;4989631;28;20394;-85
2022/01/14 04:12:19;;;;;;;16.60;15.80;;;2.80;79.60;;;;;;4990899;28;20034;-85
2022/01/14 04:17:12;;;;;;;16.30;15.50;;;2.90;79.70;;;;;;4974625;28;20031;-84
2022/01/14 04:19:38;;;;;;;15.53;14.73;;;2.80;79.70;;;;;;4974668;28;20047;-85
2022/01/14 04:22:04;;;;;;;15.50;14.77;;;2.80;79.90;;;;;;4974051;28;20043;-84
2022/01/14 04:24:30;;;;;;;16.97;16.10;;;2.80;80.00;;;;;;4974102;28;20046;-85
2022/01/14 04:26:56;;;;;;;17.17;15.53;;;2.80;80.00;;;;;;4974459;28;20044;-84
2022/01/14 04:29:22;;;;;;;15.17;14.47;;;2.80;79.90;;;;;;4973401;28;20491;-85
2022/01/14 04:31:48;;;;;;;16.97;16.00;;;2.90;79.80;;;;;;4974104;28;20035;-84
2022/01/14 04:34:17;;;;;;;15.97;15.23;;;2.90;79.70;;;;;;4981445;28;20406;-85
2022/01/14 04:36:43;;;;;;;16.10;15.30;;;2.90;79.60;;;;;;4985313;28;20026;-85
2022/01/14 04:39:10;;;;;;;15.33;14.63;;;2.90;79.50;;;;;;4992249;28;20395;-84
2022/01/14 04:41:36;;;;;;;17.07;16.17;;;3.00;79.60;;;;;;4977809;28;20031;-85
2022/01/14 04:44:02;;;;;;;15.57;14.87;;;3.00;80.40;;;;;;4976912;28;20026;-84
2022/01/14 04:46:48;;;;;;;15.70;15.00;;;3.00;79.60;;;;;;4981445;28;20031;-84
2022/01/14 04:49:14;;;;;;;16.60;15.80;;;3.00;79.60;;;;;;4981414;28;20037;-84
2022/01/14 04:51:40;;;;;;;16.50;15.70;;;2.90;79.60;;;;;;4982202;28;20022;-84
2022/01/14 04:54:06;;;;;;;16.43;15.63;;;2.90;79.50;;;;;;4978869;28;20034;-86
2022/01/14 04:56:33;;;;;;;18.30;16.57;;;2.90;79.60;;;;;;4989423;28;20506;-84
2022/01/14 04:58:59;;;;;;;15.70;15.00;;;2.90;79.70;;;;;;4978630;28;20050;-85
2022/01/14 05:01:25;;;;;;;16.50;15.70;;;2.90;79.80;;;;;;4984526;28;20038;-85
2022/01/14 05:03:51;;;;;;;16.40;15.63;;;2.80;79.80;;;;;;4984865;28;20030;-86
2022/01/14 05:06:17;;;;;;;16.47;15.67;;;2.80;79.90;;;;;;4979748;28;20042;-85
2022/01/14 05:08:43;;;;;;;15.63;14.93;;;2.80;80.00;;;;;;4990924;28;20034;-85
2022/01/14 05:11:24;;;;;;;17.23;16.23;;;2.80;80.10;;;;;;4989303;28;20026;-84
2022/01/14 05:13:50;;;;;;;16.87;16.07;;;2.70;80.10;;;;;;4978286;28;20046;-85
2022/01/14 05:16:16;;;;;;;16.00;15.30;;;2.70;80.20;;;;;;4975520;28;20039;-85
2022/01/14 05:18:42;;;;;;;17.63;16.27;;;2.70;80.20;;;;;;4973506;28;20046;-85
2022/01/14 05:21:08;;;;;;;17.43;16.63;;;2.70;80.30;;;;;;4967747;28;20031;-84
2022/01/14 05:23:34;;;;;;;16.20;15.47;;;2.70;80.40;;;;;;4970690;28;22459;-85
2022/01/14 05:26:00;;;;;;;16.90;15.53;;;2.70;80.50;;;;;;4973608;28;20336;-83
2022/01/14 05:28:27;;;;;;;16.13;15.43;;;2.70;80.70;;;;;;4968308;28;20043;-84
2022/01/14 05:30:53;;;;;;;15.73;15.03;;;2.60;80.60;;;;;;4968604;28;20039;-84
2022/01/14 05:33:19;;;;;;;15.83;15.13;;;2.60;80.70;;;;;;4981020;28;20466;-84
2022/01/14 05:35:45;;;;;;;15.37;14.67;;;2.70;80.70;;;;;;4975179;28;20041;-86
2022/01/14 05:38:11;;;;;;;16.37;15.57;;;2.70;80.60;;;;;;4990297;28;20031;-84
2022/01/14 05:40:37;;;;;;;15.40;14.70;;;2.70;80.50;;;;;;4979949;28;20042;-84
2022/01/14 05:43:03;;;;;;;15.70;15.00;;;2.70;80.60;;;;;;4980535;28;20049;-84
2022/01/14 05:45:29;;;;;;;18.23;16.93;;;2.70;80.60;;;;;;4979696;28;20372;-84
2022/01/14 05:47:55;;;;;;;15.37;14.67;;;2.70;80.50;;;;;;4977191;28;20049;-84
2022/01/14 05:50:23;;;;;;;15.30;14.60;;;2.70;80.60;;;;;;4990899;28;20045;-84
2022/01/14 05:52:49;;;;;;;16.47;15.50;;;2.70;80.60;;;;;;4971389;28;20045;-84
2022/01/14 05:55:17;;;;;;;16.47;15.67;;;2.70;80.60;;;;;;4987754;28;20123;-84
2022/01/14 05:57:43;;;;;;;15.27;14.57;;;2.70;80.70;;;;;;4986626;28;20386;-84
2022/01/14 06:00:11;;;;;;;16.07;15.30;;;2.70;80.60;;;;;;4977852;28;20505;-84
2022/01/14 06:02:37;;;;;;;16.67;15.87;;;2.70;80.60;;;;;;4974394;28;20030;-84
2022/01/14 06:05:04;;;;;;;15.20;14.50;;;2.70;80.60;;;;;;4989291;28;20094;-84
2022/01/14 06:07:30;;;;;;;15.80;15.00;;;2.70;80.70;;;;;;4988280;28;20046;-84
2022/01/14 06:09:56;;;;;;;15.83;15.13;;;2.70;80.60;;;;;;4986682;28;20038;-84
2022/01/14 06:12:22;;;;;;;17.47;16.43;;;2.70;80.60;;;;;;4985027;28;20050;-84
2022/01/14 06:14:48;;;;;;;16.13;15.33;;;2.70;80.60;;;;;;4988673;28;20027;-84
2022/01/14 06:17:14;;;;;;;15.67;14.90;;;2.70;80.60;;;;;;4989765;28;20105;-84
2022/01/14 06:19:40;;;;;;;15.57;14.87;;;2.70;80.70;;;;;;4979588;28;20031;-84
2022/01/14 06:22:06;;;;;;;16.30;15.50;;;2.70;80.70;;;;;;4979534;28;20403;-85
2022/01/14 06:24:32;;;;;;;15.43;14.73;;;2.70;80.70;;;;;;4980549;28;20038;-84
2022/01/14 06:26:58;;;;;;;16.17;15.37;;;2.80;80.70;;;;;;4986854;28;20400;-85
2022/01/14 06:29:24;;;;;;;16.00;15.17;;;2.70;80.60;;;;;;4991369;28;20035;-84
2022/01/14 06:31:51;;;;;;;15.43;14.73;;;2.70;80.60;;;;;;4977472;28;20031;-84
2022/01/14 06:34:17;;;;;;;16.97;15.90;;;2.70;80.60;;;;;;4986479;28;20030;-84
2022/01/14 06:36:43;;;;;;;16.87;15.67;;;2.70;80.70;;;;;;4985226;28;20047;-84
2022/01/14 06:39:09;;;;;;;15.20;14.50;;;2.80;80.80;;;;;;4976187;28;20046;-84
2022/01/14 06:41:35;;;;;;;17.07;16.20;;;2.80;80.70;;;;;;4989852;28;20034;-84
2022/01/14 06:44:02;;;;;;;16.27;15.47;;;2.80;80.50;;;;;;4985080;28;20061;-84
2022/01/14 06:46:28;;;;;;;15.77;14.90;;;2.70;80.50;;;;;;4985020;28;20037;-84
2022/01/14 06:48:54;;;;;;;15.63;14.93;;;2.70;80.50;;;;;;4982282;28;20066;-84
2022/01/14 06:51:20;;;;;;;15.63;14.83;;;2.70;80.60;;;;;;4987972;28;20033;-84
2022/01/14 06:53:46;;;;;;;15.50;14.80;;;2.70;80.60;;;;;;4980265;28;20031;-87
2022/01/14 06:56:14;;;;;;;15.53;14.83;;;2.70;80.60;;;;;;4982318;28;20027;-86
2022/01/14 06:58:41;;;;;;;15.00;14.30;;;2.70;80.60;;;;;;4980187;28;20034;-85
2022/01/14 07:01:07;;;;;;;15.37;14.67;;;2.70;80.80;;;;;;4984151;28;20038;-87
2022/01/14 07:03:34;;;;;;;15.50;14.80;;;2.80;80.70;;;;;;4996781;28;20462;-88
2022/01/14 07:06:00;;;;;;;15.80;15.00;;;2.80;80.60;;;;;;4991422;28;20414;-88
2022/01/14 07:08:26;;;;;;;17.43;16.43;;;2.80;80.60;;;;;;4991775;28;20423;-88
2022/01/14 07:10:52;;;;;;;16.17;15.40;;;2.80;80.60;;;;;;4995357;28;20030;-84
2022/01/14 07:13:18;;;;;;;16.87;16.07;;;2.70;80.50;;;;;;4992669;28;20065;-88
2022/01/14 07:15:45;;;;;;;17.57;16.53;;;2.80;80.60;;;;;;4984580;28;20483;-85
2022/01/14 07:18:11;;;;;;;16.10;15.30;;;2.80;80.50;;;;;;4985049;28;20046;-84
2022/01/14 07:20:37;;;;;;;16.70;15.90;;;2.90;80.50;;;;;;4993632;28;20042;-82
2022/01/14 07:23:04;;;;;;;17.47;16.50;;;2.90;80.40;;;;;;4994104;28;20050;-82
2022/01/14 07:25:30;;;;;;;17.57;16.30;;;2.90;80.30;;;;;;4993797;28;20035;-82
2022/01/14 07:27:57;;;;;;;16.70;15.87;;;2.90;80.30;;;;;;4986584;28;20510;-83
2022/01/14 07:30:24;;;;;;;15.60;14.90;;;2.90;80.30;;;;;;4982263;28;20053;-84
2022/01/14 07:32:50;;;;;;;15.90;15.20;;;2.90;80.30;;;;;;4992881;28;20046;-83
2022/01/14 07:35:16;;;;;;;15.00;14.30;;;2.90;80.20;;;;;;4992595;28;20046;-85
2022/01/14 07:37:42;;;;;;;15.10;14.40;;;2.90;80.30;;;;;;4989762;28;20459;-88
2022/01/14 07:40:08;;;;;;;16.80;15.87;;;2.80;80.30;;;;;;4980721;28;20058;-87
2022/01/14 07:42:34;;;;;;;16.93;16.13;;;2.80;80.40;;;;;;4979872;28;20034;-86
2022/01/14 07:45:01;;;;;;;17.37;16.30;;;2.70;80.40;;;;;;4994442;28;20038;-84
2022/01/14 07:47:27;;;;;;;15.97;15.17;;;2.70;80.50;;;;;;4992364;28;20153;-84
2022/01/14 07:49:53;;;;;;;16.10;15.30;;;2.70;80.60;;;;;;4991263;28;20501;-84
2022/01/14 07:52:19;;;;;;;16.70;15.47;;;2.70;80.60;;;;;;4993349;28;20053;-82
2022/01/14 07:54:45;;;;;;;15.57;14.80;;;2.70;80.50;;;;;;4997052;28;20026;-82
2022/01/14 07:57:12;;;;;;;15.77;15.07;;;2.60;80.50;;;;;;4988888;28;20030;-83
2022/01/14 07:59:38;;;;;;;15.00;14.30;;;2.60;80.50;;;;;;4960649;28;20055;-84
2022/01/14 08:02:04;;;;;;;17.67;16.67;;;2.60;80.50;;;;;;4989640;28;20031;-85
2022/01/14 08:04:33;;;;;;;16.60;15.53;;;2.60;80.60;;;;;;4993551;28;20050;-86
2022/01/14 08:07:08;;;;;;;16.67;15.87;;;2.80;80.90;;;;;;4993110;28;20038;-88
2022/01/14 08:09:38;;;;;;;16.90;15.80;;;2.90;80.70;;;;;;4989549;28;20058;-84
2022/01/14 08:12:05;;;;;;;18.50;17.00;;;3.00;80.30;;;;;;4988020;28;20395;-84
2022/01/14 08:14:31;;;;;;;15.80;15.10;;;3.00;80.20;;;;;;4981879;28;20038;-83
2022/01/14 08:16:58;;;;;;;17.47;15.90;;;3.00;80.20;;;;;;4985100;28;20050;-83
2022/01/14 08:19:24;;;;;;;17.90;16.80;;;2.90;80.10;;;;;;4991551;28;20505;-83
2022/01/14 08:21:50;;;;;;;16.30;15.50;;;2.90;80.10;;;;;;4987188;28;20031;-84
2022/01/14 08:24:16;;;;;;;18.67;17.37;;;2.90;80.30;;;;;;4983147;28;20399;-85
2022/01/14 08:26:42;;;;;;;16.17;15.47;;;2.90;80.30;;;;;;4976047;28;20026;-84
2022/01/14 08:29:09;;;;;;;14.93;14.23;;;2.90;80.30;;;;;;4982844;28;20054;-86
2022/01/14 08:31:35;;;;;;;16.27;15.20;;;2.90;80.20;;;;;;4980452;28;20420;-83
2022/01/14 08:34:01;;;;;;;15.93;15.23;;;2.90;80.30;;;;;;4988097;28;20037;-84
2022/01/14 08:36:30;;;;;;;17.30;16.43;;;2.90;80.20;;;;;;4992762;28;20030;-85
2022/01/14 08:38:56;;;;;;;18.47;17.47;;;2.90;80.30;;;;;;4992502;28;20054;-83
2022/01/14 08:41:28;;;;;;;16.97;16.07;;;2.90;80.30;;;;;;4979933;28;20033;-82
2022/01/14 08:43:56;;;;;;;17.90;17.00;;;2.90;80.10;;;;;;4989846;28;20022;-84
2022/01/14 08:46:22;;;;;;;15.83;15.13;;;2.90;80.10;;;;;;4990576;28;20049;-84
2022/01/14 08:48:48;;;;;;;15.70;15.00;;;2.90;80.20;;;;;;4984846;28;20489;-84
2022/01/14 08:51:14;;;;;;;17.13;15.73;;;2.90;80.30;;;;;;4986988;28;20038;-84
2022/01/14 08:53:40;;;;;;;18.63;17.30;;;2.90;80.30;;;;;;4990744;28;20034;-82
2022/01/14 08:56:07;;;;;;;17.97;16.77;;;2.90;80.40;;;;;;4989905;28;20050;-84
2022/01/14 08:58:33;;;;;;;15.63;14.83;;;2.90;80.30;;;;;;4990322;28;20034;-87
2022/01/14 09:00:59;;;;;;;15.20;14.50;;;2.90;80.30;;;;;;4965656;28;20038;-84
2022/01/14 09:03:25;;;;;;;16.93;16.03;;;2.80;80.20;;;;;;4979696;28;20030;-84
2022/01/14 09:05:51;;;;;;;16.10;15.30;;;2.80;80.30;;;;;;4977239;28;20031;-84
2022/01/14 09:08:17;;;;;;;15.53;14.83;;;2.80;80.50;;;;;;4985407;28;20076;-86
2022/01/14 09:10:43;;;;;;;15.10;14.40;;;2.80;80.60;;;;;;4983626;28;20035;-84
2022/01/14 09:13:09;;;;;;;16.27;15.47;;;2.90;80.60;;;;;;4967965;28;20400;-81
2022/01/14 09:15:36;;;;;;;17.90;16.60;;;2.90;80.30;;;;;;4985467;28;20034;-82
2022/01/14 09:18:03;;;;;;;15.70;15.00;;;2.90;80.40;;;;;;4988776;28;20482;-82
2022/01/14 09:20:29;;;;;;;16.83;16.03;;;2.90;80.50;;;;;;4991408;28;20023;-81
2022/01/14 09:22:57;;;;;;;18.73;17.43;;;2.90;80.60;;;;;;4975589;28;20046;-85
2022/01/14 09:25:24;;;;;;;16.33;15.23;;;2.90;80.50;;;;;;4989813;28;20398;-84
2022/01/14 09:27:52;;;;;;;15.93;15.13;;;2.90;80.40;;;;;;4991590;28;20046;-87
2022/01/14 09:30:21;;;;;;;16.90;16.00;;;2.90;80.50;;;;;;4984961;28;20360;-83
2022/01/14 09:32:47;;;;;;;17.03;15.93;;;3.10;80.90;;;;;;4992403;28;20018;-86
2022/01/14 09:35:13;;;;;;;15.83;15.10;;;3.10;80.30;;;;;;4985613;28;20026;-82
2022/01/14 09:37:41;;;;;;;16.13;15.43;;;3.20;80.10;;;;;;4987343;28;20475;-82
2022/01/14 09:40:07;;;;;;;15.20;14.50;;;3.10;80.00;;;;;;4981671;28;20047;-83
2022/01/14 09:42:34;;;;;;;16.97;16.17;;;3.10;80.10;;;;;;4986258;28;20030;-83
2022/01/14 09:45:00;;;;;;;16.30;15.43;;;3.00;80.20;;;;;;4991374;28;20038;-82
2022/01/14 09:47:26;;;;;;;16.50;15.70;;;3.00;80.20;;;;;;4975113;28;20405;-81
2022/01/14 09:49:52;;;;;;;15.87;15.17;;;2.90;80.30;;;;;;4977289;28;20499;-83
2022/01/14 09:52:18;;;;;;;16.17;15.43;;;2.90;80.30;;;;;;4985895;28;20033;-84
2022/01/14 09:54:45;;;;;;;15.73;14.93;;;2.90;80.30;;;;;;4987359;28;20030;-86
2022/01/14 09:57:13;;;;;;;15.67;14.87;;;2.90;80.40;;;;;;4987962;28;20031;-87
2022/01/14 09:59:39;;;;;;;16.23;15.50;;;2.80;80.50;;;;;;4989964;28;20368;-83
2022/01/14 10:02:05;;;;;;;15.53;14.83;;;2.80;80.50;;;;;;4988720;28;20035;-81
2022/01/14 10:04:31;;;;;;;18.27;16.80;;;2.80;80.50;;;;;;4980448;28;20027;-83
2022/01/14 10:06:59;;;;;;;15.20;14.50;;;2.80;80.50;;;;;;4980506;28;20035;-83
2022/01/14 10:09:43;;;;;;;16.10;15.17;;;2.80;80.60;;;;;;4979751;28;20110;-83
2022/01/14 10:12:13;;;;;;;15.60;14.90;;;2.80;80.60;;;;;;4978318;28;20058;-83
2022/01/14 10:14:40;;;;;;;16.40;15.60;;;2.80;80.50;;;;;;4989465;28;20038;-84
2022/01/14 10:17:09;;;;;;;15.50;14.80;;;2.80;80.60;;;;;;4988985;28;20372;-84
2022/01/14 10:19:45;;;;;;;16.70;15.67;;;2.90;80.60;;;;;;4978824;28;20034;-84
2022/01/14 10:22:20;;;;;;;16.67;15.80;;;2.90;80.40;;;;;;4974492;28;20037;-84
2022/01/14 10:24:55;;;;;;;17.63;16.60;;;2.90;80.40;;;;;;4981631;28;20035;-85
2022/01/14 10:27:40;;;;;;;15.17;14.47;;;2.90;80.30;;;;;;4988944;28;20027;-84
2022/01/14 10:30:19;;;;;;;16.60;15.80;;;3.00;80.40;;;;;;4990157;28;20050;-82
2022/01/14 10:32:52;;;;;;;16.00;15.30;;;3.00;80.40;;;;;;4975065;28;20031;-83
2022/01/14 10:35:19;;;;;;;16.40;15.60;;;2.90;80.20;;;;;;4991945;28;20041;-82
2022/01/14 10:37:46;;;;;;;17.37;16.03;;;3.00;80.40;;;;;;4990285;28;20379;-87
2022/01/14 10:40:17;;;;;;;16.57;15.77;;;3.00;80.40;;;;;;4983969;28;20053;-83
2022/01/14 10:42:43;;;;;;;;;;;3.00;80.30;;;;;;4980487;28;20027;-84
2022/01/14 10:45:19;;;;;;;17.50;16.63;;;3.10;80.40;;;;;;4982591;28;19933;-84
2022/01/14 10:47:55;;;;;;;15.63;14.93;;;3.10;80.20;;;;;;4980047;28;20026;-83
2022/01/14 10:50:44;;;;;;;17.57;16.77;;;3.10;80.10;;;;;;4978079;28;20045;-83
2022/01/14 10:53:10;;;;;;;18.60;17.03;;;3.10;80.00;;;;;;4977082;28;20039;-83
2022/01/14 10:55:41;;;;;;;15.90;15.10;;;3.10;80.10;;;;;;4988937;28;20053;-84
2022/01/14 10:58:31;;;;;;;16.23;15.43;;;3.10;80.10;;;;;;5006824;28;20034;-85
2022/01/14 11:00:59;;;;;;;16.48;15.68;;;3.20;80.10;;;;;;4989518;28;20402;-83
2022/01/14 11:03:33;;;;;;;17.43;16.63;;;3.20;80.00;;;;;;4988297;28;20467;-82
2022/01/14 11:06:15;;;;;;;17.20;16.40;;;3.30;79.90;;;;;;4991874;28;20031;-84
2022/01/14 11:08:41;;;;;;;15.87;15.10;;;3.30;80.00;;;;;;4980081;28;20057;-83
2022/01/14 11:11:08;;;;;;;16.10;15.40;;;3.20;79.90;;;;;;4986252;28;20479;-83
2022/01/14 11:13:34;;;;;;;15.57;14.87;;;3.20;80.00;;;;;;4985113;28;20041;-86
2022/01/14 11:16:00;;;;;;;18.40;16.93;;;3.20;80.00;;;;;;4988653;28;20042;-83
2022/01/14 11:18:27;;;;;;;16.47;15.67;;;3.10;80.10;;;;;;4990521;28;20298;-83
2022/01/14 11:23:38;;;;;;;15.43;14.73;;;3.10;80.30;;;;;;4981492;28;20509;-84
2022/01/14 11:26:06;;;;;;;17.20;16.17;;;3.20;80.30;;;;;;4979608;28;20031;-84
2022/01/14 11:28:34;;;;;;;17.00;16.20;;;3.10;80.20;;;;;;4976631;28;20042;-83
2022/01/14 11:31:00;;;;;;;20.33;18.50;;;3.20;80.20;;;;;;4993537;28;20046;-82
2022/01/14 11:33:42;;;;;;;19.23;17.73;;;3.20;80.10;;;;;;4988993;28;20046;-83
2022/01/14 11:36:09;;;;;;;16.73;15.87;;;3.30;80.20;;;;;;4992853;28;20478;-82
2022/01/14 11:38:38;;;;;;;19.57;18.23;;;3.40;80.00;;;;;;4978429;28;20391;-83
2022/01/14 11:41:05;;;;;;;18.17;17.27;;;3.40;79.80;;;;;;4981247;28;20050;-82
2022/01/14 11:43:41;;;;;;;17.47;16.60;;;3.30;79.80;;;;;;4997569;28;20039;-83
2022/01/14 11:46:10;;;;;;;19.73;17.97;;;3.30;80.10;;;;;;4990783;28;20465;-82
2022/01/14 11:48:40;;;;;;;17.63;16.83;;;3.30;80.70;;;;;;4993045;28;20038;-82
2022/01/14 11:51:11;;;;;;;17.25;16.33;;;3.30;79.90;;;;;;4979677;28;20039;-81
2022/01/14 11:53:42;;;;;;;17.33;16.33;;;3.30;79.90;;;;;;4992884;28;20037;-78
2022/01/14 11:56:31;;;;;;;16.30;15.57;;;3.30;79.90;;;;;;4978085;28;20027;-78
2022/01/14 11:59:22;;;;;;;17.37;16.50;;;3.40;80.10;;;;;;4989984;28;20046;-82
2022/01/14 12:01:49;;;;;;;16.25;15.50;;;3.50;79.90;;;;;;4992946;28;20038;-83
2022/01/14 12:04:15;;;;;;;18.80;17.67;;;3.50;79.90;;;;;;4985792;28;20042;-82
2022/01/14 12:06:51;;;;;;;20.53;18.80;;;3.50;79.80;;;;;;4988023;28;20031;-83
2022/01/14 12:09:18;;;;;;;19.03;18.03;;;3.50;79.80;;;;;;4991843;28;20034;-83
2022/01/14 12:11:44;;;;;;;17.13;16.33;;;3.50;79.80;;;;;;4993993;28;20031;-83
2022/01/14 12:14:12;;;;;;;19.47;18.27;;;3.50;79.80;;;;;;4993631;28;20395;-82
2022/01/14 12:16:47;;;;;;;17.40;16.40;;;3.50;79.80;;;;;;4975563;28;20039;-82
2022/01/14 12:19:19;;;;;;;20.03;18.40;;;3.50;79.80;;;;;;4982951;28;20034;-83
2022/01/14 12:21:45;;;;;;;17.23;16.43;;;3.60;79.90;;;;;;4989350;28;20045;-84
2022/01/14 12:24:21;;;;;;;19.37;18.27;;;3.60;79.80;;;;;;4989369;28;20050;-83
2022/01/14 12:27:07;;;;;;;19.43;18.13;;;3.60;79.70;;;;;;4992103;28;20027;-82
2022/01/14 12:29:38;;;;;;;17.20;16.40;;;3.60;79.70;;;;;;4978185;28;20049;-83
2022/01/14 12:32:17;;;;;;;16.98;16.08;;;3.70;79.60;;;;;;4985963;28;20488;-82
2022/01/14 12:34:56;;;;;;;18.87;17.67;;;3.70;79.50;;;;;;4979244;28;20471;-82
2022/01/14 12:37:23;;;;;;;17.30;16.47;;;3.70;79.50;;;;;;4986321;28;20038;-82
2022/01/14 12:39:50;;;;;;;16.80;16.00;;;3.70;79.50;;;;;;4988878;28;20035;-82
2022/01/14 12:42:17;;;;;;;16.40;15.63;;;3.80;79.50;;;;;;4991238;28;20030;-84
2022/01/14 12:44:45;;;;;;;18.63;17.53;;;3.80;79.50;;;;;;4976112;28;20037;-82
2022/01/14 12:47:19;;;;;;;20.03;18.87;;;3.80;79.50;;;;;;4973795;28;20033;-82
2022/01/14 12:49:45;;;;;;;17.97;16.97;;;3.80;79.50;;;;;;4989462;28;20046;-81
2022/01/14 12:52:14;;;;;;;18.87;17.87;;;3.80;79.50;;;;;;4984986;28;20030;-84
2022/01/14 12:54:44;;;;;;;17.60;16.80;;;3.90;79.40;;;;;;4988464;28;20037;-84
2022/01/14 12:57:14;;;;;;;17.40;16.60;;;3.90;79.40;;;;;;4989194;28;20038;-84
2022/01/14 12:59:48;;;;;;;19.03;17.93;;;3.90;79.40;;;;;;4990483;28;20049;-84
2022/01/14 13:02:18;;;;;;;18.60;17.70;;;3.80;79.30;;;;;;4988843;28;20513;-85
2022/01/14 13:04:45;;;;;;;17.33;16.52;;;3.90;79.50;;;;;;4978116;28;20411;-84
2022/01/14 13:07:12;;;;;;;17.37;16.57;;;3.80;79.40;;;;;;4980713;28;20034;-84
2022/01/14 13:09:39;;;;;;;16.63;15.83;;;3.80;79.40;;;;;;4981689;28;20057;-84
2022/01/14 13:12:07;;;;;;;19.27;18.17;;;3.80;79.40;;;;;;4986605;28;20050;-84
2022/01/14 13:14:43;;;;;;;16.90;16.10;;;3.80;79.50;;;;;;4992062;28;20042;-84